sensor_id;sensor_type;location;lat;lon;timestamp;P1;durP1;ratioP1;P2;durP2;ratioP2
68507;SDS011;55510;49.560;19.090;2023-03-25T00:00:23;19.33;;;11.20;;
68507;SDS011;55510;49.560;19.090;2023-03-25T00:03:44;23.45;;;13.40;;
68507;SDS011;55510;49.560;19.090;2023-03-25T00:06:46;20.37;;;11.60;;
68507;SDS011;55510;49.560;19.090;2023-03-25T00:09:46;19.97;;;11.63;;
68507;SDS011;55510;49.560;19.090;2023-03-25T00:12:48;17.77;;;9.40;;
68507;SDS011;55510;49.560;19.090;2023-03-25T00:15:49;20.13;;;9.63;;
68507;SDS011;55510;49.560;19.090;2023-03-25T00:18:52;18.33;;;10.13;;
68507;SDS011;55510;49.560;19.090;2023-03-25T00:21:53;19.07;;;11.13;;
68507;SDS011;55510;49.560;19.090;2023-03-25T00:24:54;19.75;;;10.82;;
68507;SDS011;55510;49.560;19.090;2023-03-25T00:27:54;20.23;;;10.30;;
68507;SDS011;55510;49.560;19.090;2023-03-25T00:31:06;21.35;;;11.18;;
68507;SDS011;55510;49.560;19.090;2023-03-25T00:34:10;23.73;;;12.68;;
68507;SDS011;55510;49.560;19.090;2023-03-25T00:37:14;25.07;;;14.37;;
68507;SDS011;55510;49.560;19.090;2023-03-25T00:40:20;25.23;;;14.45;;
68507;SDS011;55510;49.560;19.090;2023-03-25T00:43:21;21.20;;;12.30;;
68507;SDS011;55510;49.560;19.090;2023-03-25T00:46:22;22.00;;;11.70;;
68507;SDS011;55510;49.560;19.090;2023-03-25T00:49:26;23.98;;;13.55;;
68507;SDS011;55510;49.560;19.090;2023-03-25T00:52:27;24.15;;;15.18;;
68507;SDS011;55510;49.560;19.090;2023-03-25T00:55:28;22.87;;;13.80;;
68507;SDS011;55510;49.560;19.090;2023-03-25T00:58:29;18.45;;;11.18;;
68507;SDS011;55510;49.560;19.090;2023-03-25T01:01:30;20.80;;;13.47;;
68507;SDS011;55510;49.560;19.090;2023-03-25T01:04:31;19.90;;;11.83;;
68507;SDS011;55510;49.560;19.090;2023-03-25T01:07:32;19.30;;;10.05;;
68507;SDS011;55510;49.560;19.090;2023-03-25T01:10:34;17.50;;;10.43;;
68507;SDS011;55510;49.560;19.090;2023-03-25T01:13:36;17.70;;;8.88;;
68507;SDS011;55510;49.560;19.090;2023-03-25T01:16:36;15.27;;;8.75;;
68507;SDS011;55510;49.560;19.090;2023-03-25T01:19:38;21.73;;;11.37;;
68507;SDS011;55510;49.560;19.090;2023-03-25T01:22:38;17.30;;;10.68;;
68507;SDS011;55510;49.560;19.090;2023-03-25T01:25:39;20.10;;;11.50;;
68507;SDS011;55510;49.560;19.090;2023-03-25T01:28:40;23.53;;;14.13;;
68507;SDS011;55510;49.560;19.090;2023-03-25T01:31:42;19.33;;;11.82;;
68507;SDS011;55510;49.560;19.090;2023-03-25T01:34:43;23.38;;;12.40;;
68507;SDS011;55510;49.560;19.090;2023-03-25T01:37:44;22.25;;;12.00;;
68507;SDS011;55510;49.560;19.090;2023-03-25T01:40:45;24.70;;;14.70;;
68507;SDS011;55510;49.560;19.090;2023-03-25T01:44:06;23.98;;;13.70;;
68507;SDS011;55510;49.560;19.090;2023-03-25T01:47:09;17.45;;;10.50;;
68507;SDS011;55510;49.560;19.090;2023-03-25T01:50:10;20.07;;;9.87;;
68507;SDS011;55510;49.560;19.090;2023-03-25T01:53:14;22.95;;;12.45;;
68507;SDS011;55510;49.560;19.090;2023-03-25T01:56:17;19.27;;;9.98;;
68507;SDS011;55510;49.560;19.090;2023-03-25T01:59:23;14.43;;;7.45;;
68507;SDS011;55510;49.560;19.090;2023-03-25T02:02:27;13.05;;;6.20;;
68507;SDS011;55510;49.560;19.090;2023-03-25T02:09:05;16.95;;;8.15;;
68507;SDS011;55510;49.560;19.090;2023-03-25T02:12:08;16.40;;;8.80;;
68507;SDS011;55510;49.560;19.090;2023-03-25T02:15:09;14.13;;;7.72;;
68507;SDS011;55510;49.560;19.090;2023-03-25T02:18:14;13.43;;;8.03;;
68507;SDS011;55510;49.560;19.090;2023-03-25T02:21:34;16.15;;;9.20;;
68507;SDS011;55510;49.560;19.090;2023-03-25T02:25:00;16.77;;;9.70;;
68507;SDS011;55510;49.560;19.090;2023-03-25T02:28:11;18.25;;;10.30;;
68507;SDS011;55510;49.560;19.090;2023-03-25T02:38:36;18.10;;;8.50;;
68507;SDS011;55510;49.560;19.090;2023-03-25T02:45:31;24.52;;;14.32;;
68507;SDS011;55510;49.560;19.090;2023-03-25T02:48:55;25.25;;;13.45;;
68507;SDS011;55510;49.560;19.090;2023-03-25T02:52:14;22.47;;;12.70;;
68507;SDS011;55510;49.560;19.090;2023-03-25T02:55:20;29.23;;;16.55;;
68507;SDS011;55510;49.560;19.090;2023-03-25T02:58:24;26.83;;;15.07;;
68507;SDS011;55510;49.560;19.090;2023-03-25T03:01:29;23.40;;;13.35;;
68507;SDS011;55510;49.560;19.090;2023-03-25T03:04:29;24.53;;;14.57;;
68507;SDS011;55510;49.560;19.090;2023-03-25T03:07:33;23.45;;;12.50;;
68507;SDS011;55510;49.560;19.090;2023-03-25T03:17:17;16.55;;;10.10;;
68507;SDS011;55510;49.560;19.090;2023-03-25T03:23:46;15.90;;;8.95;;
68507;SDS011;55510;49.560;19.090;2023-03-25T03:27:06;24.07;;;14.87;;
68507;SDS011;55510;49.560;19.090;2023-03-25T03:30:28;19.37;;;12.50;;
68507;SDS011;55510;49.560;19.090;2023-03-25T03:33:48;22.40;;;13.10;;
68507;SDS011;55510;49.560;19.090;2023-03-25T03:36:56;17.30;;;11.00;;
68507;SDS011;55510;49.560;19.090;2023-03-25T03:40:00;12.55;;;7.03;;
68507;SDS011;55510;49.560;19.090;2023-03-25T03:43:09;11.17;;;5.70;;
68507;SDS011;55510;49.560;19.090;2023-03-25T03:46:26;8.80;;;4.10;;
68507;SDS011;55510;49.560;19.090;2023-03-25T03:49:41;7.35;;;3.65;;
68507;SDS011;55510;49.560;19.090;2023-03-25T03:56:17;6.97;;;2.60;;
68507;SDS011;55510;49.560;19.090;2023-03-25T03:59:44;9.30;;;5.33;;
68507;SDS011;55510;49.560;19.090;2023-03-25T04:02:50;19.03;;;6.97;;
68507;SDS011;55510;49.560;19.090;2023-03-25T04:06:08;6.78;;;2.90;;
68507;SDS011;55510;49.560;19.090;2023-03-25T04:09:26;5.38;;;1.73;;
68507;SDS011;55510;49.560;19.090;2023-03-25T04:12:38;7.18;;;3.10;;
68507;SDS011;55510;49.560;19.090;2023-03-25T04:15:42;8.57;;;3.97;;
68507;SDS011;55510;49.560;19.090;2023-03-25T04:18:43;16.60;;;6.47;;
68507;SDS011;55510;49.560;19.090;2023-03-25T04:21:46;20.00;;;10.93;;
68507;SDS011;55510;49.560;19.090;2023-03-25T04:24:48;18.75;;;9.48;;
68507;SDS011;55510;49.560;19.090;2023-03-25T04:27:48;16.03;;;8.37;;
68507;SDS011;55510;49.560;19.090;2023-03-25T04:30:53;20.65;;;9.88;;
68507;SDS011;55510;49.560;19.090;2023-03-25T04:33:55;17.05;;;9.45;;
68507;SDS011;55510;49.560;19.090;2023-03-25T04:36:57;15.52;;;7.97;;
68507;SDS011;55510;49.560;19.090;2023-03-25T04:39:57;13.50;;;7.97;;
68507;SDS011;55510;49.560;19.090;2023-03-25T04:42:59;15.30;;;7.65;;
68507;SDS011;55510;49.560;19.090;2023-03-25T04:46:00;10.10;;;5.87;;
68507;SDS011;55510;49.560;19.090;2023-03-25T04:49:02;8.15;;;3.53;;
68507;SDS011;55510;49.560;19.090;2023-03-25T04:52:05;8.13;;;4.60;;
68507;SDS011;55510;49.560;19.090;2023-03-25T04:55:06;17.13;;;8.60;;
68507;SDS011;55510;49.560;19.090;2023-03-25T04:58:08;15.33;;;7.33;;
68507;SDS011;55510;49.560;19.090;2023-03-25T05:01:19;12.07;;;6.95;;
68507;SDS011;55510;49.560;19.090;2023-03-25T05:04:23;12.52;;;6.95;;
68507;SDS011;55510;49.560;19.090;2023-03-25T05:07:24;14.93;;;8.68;;
68507;SDS011;55510;49.560;19.090;2023-03-25T05:10:24;16.93;;;10.80;;
68507;SDS011;55510;49.560;19.090;2023-03-25T05:13:28;13.10;;;9.18;;
68507;SDS011;55510;49.560;19.090;2023-03-25T05:16:29;12.83;;;6.73;;
68507;SDS011;55510;49.560;19.090;2023-03-25T05:19:30;13.55;;;6.65;;
68507;SDS011;55510;49.560;19.090;2023-03-25T05:22:34;10.93;;;6.55;;
68507;SDS011;55510;49.560;19.090;2023-03-25T05:25:35;10.50;;;5.65;;
68507;SDS011;55510;49.560;19.090;2023-03-25T05:28:36;15.13;;;10.03;;
68507;SDS011;55510;49.560;19.090;2023-03-25T05:31:38;17.63;;;10.10;;
68507;SDS011;55510;49.560;19.090;2023-03-25T05:34:40;15.88;;;10.48;;
68507;SDS011;55510;49.560;19.090;2023-03-25T05:37:41;19.50;;;11.18;;
68507;SDS011;55510;49.560;19.090;2023-03-25T05:40:43;17.48;;;10.77;;
68507;SDS011;55510;49.560;19.090;2023-03-25T05:43:45;11.57;;;7.60;;
68507;SDS011;55510;49.560;19.090;2023-03-25T05:46:46;11.02;;;6.13;;
68507;SDS011;55510;49.560;19.090;2023-03-25T05:49:48;8.43;;;5.15;;
68507;SDS011;55510;49.560;19.090;2023-03-25T05:52:49;6.73;;;3.73;;
68507;SDS011;55510;49.560;19.090;2023-03-25T05:55:51;8.48;;;3.80;;
68507;SDS011;55510;49.560;19.090;2023-03-25T05:58:53;9.18;;;4.35;;
68507;SDS011;55510;49.560;19.090;2023-03-25T06:01:55;11.75;;;4.60;;
68507;SDS011;55510;49.560;19.090;2023-03-25T06:04:56;9.57;;;4.50;;
68507;SDS011;55510;49.560;19.090;2023-03-25T06:07:57;12.18;;;6.78;;
68507;SDS011;55510;49.560;19.090;2023-03-25T06:10:58;10.23;;;5.80;;
68507;SDS011;55510;49.560;19.090;2023-03-25T06:14:00;14.55;;;7.50;;
68507;SDS011;55510;49.560;19.090;2023-03-25T06:17:00;9.97;;;5.23;;
68507;SDS011;55510;49.560;19.090;2023-03-25T06:20:01;9.10;;;4.43;;
68507;SDS011;55510;49.560;19.090;2023-03-25T06:23:11;9.00;;;3.95;;
68507;SDS011;55510;49.560;19.090;2023-03-25T06:26:15;6.33;;;2.47;;
68507;SDS011;55510;49.560;19.090;2023-03-25T06:29:17;7.07;;;2.87;;
68507;SDS011;55510;49.560;19.090;2023-03-25T06:32:18;6.40;;;2.70;;
68507;SDS011;55510;49.560;19.090;2023-03-25T06:35:18;9.53;;;4.40;;
68507;SDS011;55510;49.560;19.090;2023-03-25T06:38:20;11.63;;;5.85;;
68507;SDS011;55510;49.560;19.090;2023-03-25T06:41:20;11.80;;;5.15;;
68507;SDS011;55510;49.560;19.090;2023-03-25T06:44:25;11.48;;;5.25;;
68507;SDS011;55510;49.560;19.090;2023-03-25T06:47:26;9.73;;;4.30;;
68507;SDS011;55510;49.560;19.090;2023-03-25T06:50:27;9.13;;;5.28;;
68507;SDS011;55510;49.560;19.090;2023-03-25T06:53:28;7.23;;;3.57;;
68507;SDS011;55510;49.560;19.090;2023-03-25T06:56:29;12.25;;;5.10;;
68507;SDS011;55510;49.560;19.090;2023-03-25T06:59:30;8.10;;;3.92;;
68507;SDS011;55510;49.560;19.090;2023-03-25T07:02:31;6.00;;;2.67;;
68507;SDS011;55510;49.560;19.090;2023-03-25T07:05:35;7.07;;;2.40;;
68507;SDS011;55510;49.560;19.090;2023-03-25T07:08:36;8.18;;;3.60;;
68507;SDS011;55510;49.560;19.090;2023-03-25T07:11:36;6.73;;;2.97;;
68507;SDS011;55510;49.560;19.090;2023-03-25T07:14:37;8.27;;;4.05;;
68507;SDS011;55510;49.560;19.090;2023-03-25T07:17:38;5.23;;;2.60;;
68507;SDS011;55510;49.560;19.090;2023-03-25T07:20:39;4.55;;;2.03;;
68507;SDS011;55510;49.560;19.090;2023-03-25T07:23:39;6.20;;;3.10;;
68507;SDS011;55510;49.560;19.090;2023-03-25T07:26:40;6.65;;;2.72;;
68507;SDS011;55510;49.560;19.090;2023-03-25T07:29:41;7.90;;;2.90;;
68507;SDS011;55510;49.560;19.090;2023-03-25T07:32:45;9.35;;;3.30;;
68507;SDS011;55510;49.560;19.090;2023-03-25T07:35:45;6.20;;;2.80;;
68507;SDS011;55510;49.560;19.090;2023-03-25T07:38:46;6.27;;;2.47;;
68507;SDS011;55510;49.560;19.090;2023-03-25T07:41:47;6.95;;;2.45;;
68507;SDS011;55510;49.560;19.090;2023-03-25T07:44:48;7.53;;;3.20;;
68507;SDS011;55510;49.560;19.090;2023-03-25T07:47:48;7.70;;;2.30;;
68507;SDS011;55510;49.560;19.090;2023-03-25T07:50:50;4.60;;;1.90;;
68507;SDS011;55510;49.560;19.090;2023-03-25T07:53:51;4.50;;;1.60;;
68507;SDS011;55510;49.560;19.090;2023-03-25T07:56:52;4.90;;;2.05;;
68507;SDS011;55510;49.560;19.090;2023-03-25T07:59:53;6.57;;;2.03;;
68507;SDS011;55510;49.560;19.090;2023-03-25T08:02:54;5.43;;;1.85;;
68507;SDS011;55510;49.560;19.090;2023-03-25T08:05:55;8.30;;;2.50;;
68507;SDS011;55510;49.560;19.090;2023-03-25T08:09:00;7.40;;;3.05;;
68507;SDS011;55510;49.560;19.090;2023-03-25T08:12:00;12.37;;;4.50;;
68507;SDS011;55510;49.560;19.090;2023-03-25T08:15:01;14.40;;;5.80;;
68507;SDS011;55510;49.560;19.090;2023-03-25T08:18:03;5.25;;;2.35;;
68507;SDS011;55510;49.560;19.090;2023-03-25T08:21:05;7.03;;;2.53;;
68507;SDS011;55510;49.560;19.090;2023-03-25T08:24:07;4.93;;;2.17;;
68507;SDS011;55510;49.560;19.090;2023-03-25T08:27:07;4.63;;;2.08;;
68507;SDS011;55510;49.560;19.090;2023-03-25T08:30:08;4.77;;;1.57;;
68507;SDS011;55510;49.560;19.090;2023-03-25T08:33:09;5.80;;;2.08;;
68507;SDS011;55510;49.560;19.090;2023-03-25T08:36:10;4.57;;;2.00;;
68507;SDS011;55510;49.560;19.090;2023-03-25T08:39:13;3.47;;;1.50;;
68507;SDS011;55510;49.560;19.090;2023-03-25T08:42:16;5.32;;;2.38;;
68507;SDS011;55510;49.560;19.090;2023-03-25T08:45:17;5.55;;;2.35;;
68507;SDS011;55510;49.560;19.090;2023-03-25T08:48:18;6.35;;;3.75;;
68507;SDS011;55510;49.560;19.090;2023-03-25T08:51:19;4.57;;;1.90;;
68507;SDS011;55510;49.560;19.090;2023-03-25T08:54:21;5.05;;;1.83;;
68507;SDS011;55510;49.560;19.090;2023-03-25T08:57:22;6.07;;;2.50;;
68507;SDS011;55510;49.560;19.090;2023-03-25T09:00:23;6.63;;;2.80;;
68507;SDS011;55510;49.560;19.090;2023-03-25T09:03:26;11.60;;;4.40;;
68507;SDS011;55510;49.560;19.090;2023-03-25T09:06:27;20.75;;;9.57;;
68507;SDS011;55510;49.560;19.090;2023-03-25T09:09:28;6.13;;;2.40;;
68507;SDS011;55510;49.560;19.090;2023-03-25T09:12:29;5.28;;;2.17;;
68507;SDS011;55510;49.560;19.090;2023-03-25T09:15:30;4.80;;;2.08;;
68507;SDS011;55510;49.560;19.090;2023-03-25T09:18:30;4.37;;;1.70;;
68507;SDS011;55510;49.560;19.090;2023-03-25T09:21:32;5.00;;;1.85;;
68507;SDS011;55510;49.560;19.090;2023-03-25T09:24:33;6.70;;;2.60;;
68507;SDS011;55510;49.560;19.090;2023-03-25T09:27:35;4.97;;;1.65;;
68507;SDS011;55510;49.560;19.090;2023-03-25T09:30:36;5.20;;;1.30;;
68507;SDS011;55510;49.560;19.090;2023-03-25T09:33:37;4.83;;;1.73;;
68507;SDS011;55510;49.560;19.090;2023-03-25T09:36:37;5.77;;;1.93;;
68507;SDS011;55510;49.560;19.090;2023-03-25T09:39:38;3.50;;;1.63;;
68507;SDS011;55510;49.560;19.090;2023-03-25T09:45:45;6.90;;;1.48;;
68507;SDS011;55510;49.560;19.090;2023-03-25T09:48:47;5.88;;;1.42;;
68507;SDS011;55510;49.560;19.090;2023-03-25T09:51:50;4.83;;;1.37;;
68507;SDS011;55510;49.560;19.090;2023-03-25T09:54:54;4.87;;;1.30;;
68507;SDS011;55510;49.560;19.090;2023-03-25T09:58:01;6.05;;;1.25;;
68507;SDS011;55510;49.560;19.090;2023-03-25T10:08:12;4.30;;;1.10;;
68507;SDS011;55510;49.560;19.090;2023-03-25T10:25:04;7.17;;;1.10;;
68507;SDS011;55510;49.560;19.090;2023-03-25T10:28:20;5.10;;;1.30;;
68507;SDS011;55510;49.560;19.090;2023-03-25T10:31:27;5.78;;;1.30;;
68507;SDS011;55510;49.560;19.090;2023-03-25T10:34:42;4.63;;;1.00;;
68507;SDS011;55510;49.560;19.090;2023-03-25T10:37:50;4.22;;;1.17;;
68507;SDS011;55510;49.560;19.090;2023-03-25T10:41:04;6.40;;;1.63;;
68507;SDS011;55510;49.560;19.090;2023-03-25T10:44:10;4.77;;;1.10;;
68507;SDS011;55510;49.560;19.090;2023-03-25T10:47:17;3.65;;;1.00;;
68507;SDS011;55510;49.560;19.090;2023-03-25T10:50:20;12.48;;;4.78;;
68507;SDS011;55510;49.560;19.090;2023-03-25T10:53:23;3.55;;;1.50;;
68507;SDS011;55510;49.560;19.090;2023-03-25T10:56:29;4.90;;;1.43;;
68507;SDS011;55510;49.560;19.090;2023-03-25T10:59:40;5.73;;;1.40;;
68507;SDS011;55510;49.560;19.090;2023-03-25T11:02:45;7.00;;;2.00;;
68507;SDS011;55510;49.560;19.090;2023-03-25T11:05:47;4.07;;;1.40;;
68507;SDS011;55510;49.560;19.090;2023-03-25T11:12:07;6.70;;;1.00;;
68507;SDS011;55510;49.560;19.090;2023-03-25T11:15:11;4.30;;;0.77;;
68507;SDS011;55510;49.560;19.090;2023-03-25T11:18:15;4.72;;;1.00;;
68507;SDS011;55510;49.560;19.090;2023-03-25T11:21:22;6.72;;;1.60;;
68507;SDS011;55510;49.560;19.090;2023-03-25T11:24:26;6.63;;;0.90;;
68507;SDS011;55510;49.560;19.090;2023-03-25T11:27:51;4.18;;;0.82;;
68507;SDS011;55510;49.560;19.090;2023-03-25T11:31:09;3.67;;;1.10;;
68507;SDS011;55510;49.560;19.090;2023-03-25T11:34:17;9.50;;;4.13;;
68507;SDS011;55510;49.560;19.090;2023-03-25T11:37:20;5.63;;;1.07;;
68507;SDS011;55510;49.560;19.090;2023-03-25T11:40:24;2.42;;;0.60;;
68507;SDS011;55510;49.560;19.090;2023-03-25T11:43:29;4.22;;;1.08;;
68507;SDS011;55510;49.560;19.090;2023-03-25T11:46:40;7.20;;;1.77;;
68507;SDS011;55510;49.560;19.090;2023-03-25T11:49:46;5.73;;;1.30;;
68507;SDS011;55510;49.560;19.090;2023-03-25T11:52:51;3.87;;;0.90;;
68507;SDS011;55510;49.560;19.090;2023-03-25T11:56:00;5.10;;;1.48;;
68507;SDS011;55510;49.560;19.090;2023-03-25T11:59:16;5.35;;;1.20;;
68507;SDS011;55510;49.560;19.090;2023-03-25T12:02:22;3.95;;;1.20;;
68507;SDS011;55510;49.560;19.090;2023-03-25T12:05:31;4.30;;;1.40;;
68507;SDS011;55510;49.560;19.090;2023-03-25T12:08:40;2.60;;;0.30;;
68507;SDS011;55510;49.560;19.090;2023-03-25T12:11:53;6.95;;;0.47;;
68507;SDS011;55510;49.560;19.090;2023-03-25T12:25:17;2.73;;;0.50;;
68507;SDS011;55510;49.560;19.090;2023-03-25T12:34:56;1.80;;;0.40;;
68507;SDS011;55510;49.560;19.090;2023-03-25T12:45:20;3.30;;;0.75;;
68507;SDS011;55510;49.560;19.090;2023-03-25T13:08:45;13.63;;;6.28;;
68507;SDS011;55510;49.560;19.090;2023-03-25T13:15:39;10.70;;;4.30;;
68507;SDS011;55510;49.560;19.090;2023-03-25T13:18:51;21.98;;;10.10;;
68507;SDS011;55510;49.560;19.090;2023-03-25T13:22:04;27.23;;;12.20;;
68507;SDS011;55510;49.560;19.090;2023-03-25T13:25:20;11.55;;;4.50;;
68507;SDS011;55510;49.560;19.090;2023-03-25T13:28:31;6.83;;;2.30;;
68507;SDS011;55510;49.560;19.090;2023-03-25T13:31:39;15.87;;;7.53;;
68507;SDS011;55510;49.560;19.090;2023-03-25T13:34:43;7.18;;;2.83;;
68507;SDS011;55510;49.560;19.090;2023-03-25T13:37:50;6.22;;;2.65;;
68507;SDS011;55510;49.560;19.090;2023-03-25T13:41:11;6.70;;;2.75;;
68507;SDS011;55510;49.560;19.090;2023-03-25T13:44:21;5.73;;;1.67;;
68507;SDS011;55510;49.560;19.090;2023-03-25T13:47:36;7.07;;;1.93;;
68507;SDS011;55510;49.560;19.090;2023-03-25T13:50:42;8.75;;;3.20;;
68507;SDS011;55510;49.560;19.090;2023-03-25T13:54:04;10.15;;;3.55;;
68507;SDS011;55510;49.560;19.090;2023-03-25T14:07:31;13.40;;;6.45;;
68507;SDS011;55510;49.560;19.090;2023-03-25T14:10:48;11.65;;;4.43;;
68507;SDS011;55510;49.560;19.090;2023-03-25T14:14:11;10.50;;;4.27;;
68507;SDS011;55510;49.560;19.090;2023-03-25T14:17:16;13.40;;;5.77;;
68507;SDS011;55510;49.560;19.090;2023-03-25T14:20:37;19.02;;;7.35;;
68507;SDS011;55510;49.560;19.090;2023-03-25T14:23:39;14.25;;;6.38;;
68507;SDS011;55510;49.560;19.090;2023-03-25T14:26:41;10.63;;;4.47;;
68507;SDS011;55510;49.560;19.090;2023-03-25T14:32:55;12.50;;;5.32;;
68507;SDS011;55510;49.560;19.090;2023-03-25T14:35:56;13.73;;;6.73;;
68507;SDS011;55510;49.560;19.090;2023-03-25T14:38:57;14.60;;;7.87;;
68507;SDS011;55510;49.560;19.090;2023-03-25T14:41:59;11.75;;;6.72;;
68507;SDS011;55510;49.560;19.090;2023-03-25T14:51:44;6.10;;;1.95;;
68507;SDS011;55510;49.560;19.090;2023-03-25T14:54:50;6.55;;;1.90;;
68507;SDS011;55510;49.560;19.090;2023-03-25T14:57:59;6.32;;;2.10;;
68507;SDS011;55510;49.560;19.090;2023-03-25T15:01:05;7.57;;;2.77;;
68507;SDS011;55510;49.560;19.090;2023-03-25T15:07:37;5.05;;;1.83;;
68507;SDS011;55510;49.560;19.090;2023-03-25T15:10:39;8.85;;;2.95;;
68507;SDS011;55510;49.560;19.090;2023-03-25T15:13:46;4.45;;;1.13;;
68507;SDS011;55510;49.560;19.090;2023-03-25T15:26:28;5.70;;;1.05;;
68507;SDS011;55510;49.560;19.090;2023-03-25T15:33:47;5.47;;;1.07;;
68507;SDS011;55510;49.560;19.090;2023-03-25T15:40:19;4.95;;;1.52;;
68507;SDS011;55510;49.560;19.090;2023-03-25T15:56:28;7.97;;;2.05;;
68507;SDS011;55510;49.560;19.090;2023-03-25T15:59:34;7.45;;;2.33;;
68507;SDS011;55510;49.560;19.090;2023-03-25T16:02:47;4.63;;;1.35;;
68507;SDS011;55510;49.560;19.090;2023-03-25T16:05:57;15.70;;;6.07;;
68507;SDS011;55510;49.560;19.090;2023-03-25T16:09:02;7.37;;;3.37;;
68507;SDS011;55510;49.560;19.090;2023-03-25T16:12:04;10.35;;;3.85;;
68507;SDS011;55510;49.560;19.090;2023-03-25T16:15:12;11.55;;;3.30;;
68507;SDS011;55510;49.560;19.090;2023-03-25T16:18:14;11.45;;;4.18;;
68507;SDS011;55510;49.560;19.090;2023-03-25T16:21:15;8.70;;;4.10;;
68507;SDS011;55510;49.560;19.090;2023-03-25T16:24:17;12.63;;;6.50;;
68507;SDS011;55510;49.560;19.090;2023-03-25T16:27:28;23.23;;;15.98;;
68507;SDS011;55510;49.560;19.090;2023-03-25T16:30:32;32.35;;;15.32;;
68507;SDS011;55510;49.560;19.090;2023-03-25T16:33:38;51.22;;;20.10;;
68507;SDS011;55510;49.560;19.090;2023-03-25T16:36:40;45.00;;;18.67;;
68507;SDS011;55510;49.560;19.090;2023-03-25T16:39:42;23.40;;;9.17;;
68507;SDS011;55510;49.560;19.090;2023-03-25T16:42:43;18.67;;;6.80;;
68507;SDS011;55510;49.560;19.090;2023-03-25T16:45:44;19.77;;;6.87;;
68507;SDS011;55510;49.560;19.090;2023-03-25T16:48:48;12.60;;;4.97;;
68507;SDS011;55510;49.560;19.090;2023-03-25T16:51:53;23.25;;;9.13;;
68507;SDS011;55510;49.560;19.090;2023-03-25T16:58:03;39.08;;;14.32;;
68507;SDS011;55510;49.560;19.090;2023-03-25T17:01:15;19.97;;;8.03;;
68507;SDS011;55510;49.560;19.090;2023-03-25T17:04:17;18.43;;;8.27;;
68507;SDS011;55510;49.560;19.090;2023-03-25T17:07:26;12.55;;;4.88;;
68507;SDS011;55510;49.560;19.090;2023-03-25T17:10:29;14.40;;;4.65;;
68507;SDS011;55510;49.560;19.090;2023-03-25T17:13:33;47.95;;;13.38;;
68507;SDS011;55510;49.560;19.090;2023-03-25T17:16:41;47.60;;;13.47;;
68507;SDS011;55510;49.560;19.090;2023-03-25T17:19:43;24.88;;;8.55;;
68507;SDS011;55510;49.560;19.090;2023-03-25T17:22:59;17.52;;;6.55;;
68507;SDS011;55510;49.560;19.090;2023-03-25T17:26:02;32.45;;;10.90;;
68507;SDS011;55510;49.560;19.090;2023-03-25T17:29:06;35.00;;;10.85;;
68507;SDS011;55510;49.560;19.090;2023-03-25T17:32:07;30.23;;;11.10;;
68507;SDS011;55510;49.560;19.090;2023-03-25T17:35:24;22.80;;;9.50;;
68507;SDS011;55510;49.560;19.090;2023-03-25T17:38:31;33.53;;;12.82;;
68507;SDS011;55510;49.560;19.090;2023-03-25T17:41:36;32.88;;;12.93;;
68507;SDS011;55510;49.560;19.090;2023-03-25T17:44:39;23.33;;;8.90;;
68507;SDS011;55510;49.560;19.090;2023-03-25T17:47:44;22.70;;;8.88;;
68507;SDS011;55510;49.560;19.090;2023-03-25T17:50:49;28.27;;;10.77;;
68507;SDS011;55510;49.560;19.090;2023-03-25T17:53:52;27.05;;;11.65;;
68507;SDS011;55510;49.560;19.090;2023-03-25T17:56:53;29.65;;;12.32;;
68507;SDS011;55510;49.560;19.090;2023-03-25T17:59:55;28.73;;;12.07;;
68507;SDS011;55510;49.560;19.090;2023-03-25T18:02:57;33.28;;;13.48;;
68507;SDS011;55510;49.560;19.090;2023-03-25T18:05:57;39.53;;;13.77;;
68507;SDS011;55510;49.560;19.090;2023-03-25T18:09:00;38.35;;;15.52;;
68507;SDS011;55510;49.560;19.090;2023-03-25T18:12:01;27.17;;;12.07;;
68507;SDS011;55510;49.560;19.090;2023-03-25T18:15:02;37.60;;;14.53;;
68507;SDS011;55510;49.560;19.090;2023-03-25T18:18:04;49.42;;;18.92;;
68507;SDS011;55510;49.560;19.090;2023-03-25T18:21:07;44.03;;;18.23;;
68507;SDS011;55510;49.560;19.090;2023-03-25T18:24:10;59.63;;;23.92;;
68507;SDS011;55510;49.560;19.090;2023-03-25T18:27:12;51.47;;;20.15;;
68507;SDS011;55510;49.560;19.090;2023-03-25T18:30:15;37.67;;;13.10;;
68507;SDS011;55510;49.560;19.090;2023-03-25T18:33:19;30.60;;;12.40;;
68507;SDS011;55510;49.560;19.090;2023-03-25T18:36:21;45.92;;;16.27;;
68507;SDS011;55510;49.560;19.090;2023-03-25T18:39:22;36.35;;;13.38;;
68507;SDS011;55510;49.560;19.090;2023-03-25T18:42:25;19.40;;;7.13;;
68507;SDS011;55510;49.560;19.090;2023-03-25T18:45:26;13.80;;;6.07;;
68507;SDS011;55510;49.560;19.090;2023-03-25T18:48:27;13.88;;;4.25;;
68507;SDS011;55510;49.560;19.090;2023-03-25T18:51:28;11.77;;;4.43;;
68507;SDS011;55510;49.560;19.090;2023-03-25T18:54:29;14.90;;;5.30;;
68507;SDS011;55510;49.560;19.090;2023-03-25T18:57:30;15.55;;;5.32;;
68507;SDS011;55510;49.560;19.090;2023-03-25T19:00:34;17.87;;;6.73;;
68507;SDS011;55510;49.560;19.090;2023-03-25T19:03:38;18.70;;;6.50;;
68507;SDS011;55510;49.560;19.090;2023-03-25T19:06:39;26.53;;;10.67;;
68507;SDS011;55510;49.560;19.090;2023-03-25T19:09:40;25.48;;;9.85;;
68507;SDS011;55510;49.560;19.090;2023-03-25T19:12:40;21.40;;;8.47;;
68507;SDS011;55510;49.560;19.090;2023-03-25T19:15:43;32.80;;;12.38;;
68507;SDS011;55510;49.560;19.090;2023-03-25T19:18:44;29.05;;;12.13;;
68507;SDS011;55510;49.560;19.090;2023-03-25T19:21:46;36.58;;;15.02;;
68507;SDS011;55510;49.560;19.090;2023-03-25T19:24:47;34.27;;;13.33;;
68507;SDS011;55510;49.560;19.090;2023-03-25T19:27:48;20.17;;;8.73;;
68507;SDS011;55510;49.560;19.090;2023-03-25T19:30:49;19.40;;;7.77;;
68507;SDS011;55510;49.560;19.090;2023-03-25T19:33:50;18.52;;;7.15;;
68507;SDS011;55510;49.560;19.090;2023-03-25T19:36:54;16.37;;;7.60;;
68507;SDS011;55510;49.560;19.090;2023-03-25T19:40:05;16.55;;;6.70;;
68507;SDS011;55510;49.560;19.090;2023-03-25T19:43:07;37.15;;;15.73;;
68507;SDS011;55510;49.560;19.090;2023-03-25T19:46:10;31.37;;;13.63;;
68507;SDS011;55510;49.560;19.090;2023-03-25T19:49:11;34.83;;;15.17;;
68507;SDS011;55510;49.560;19.090;2023-03-25T19:52:14;40.05;;;16.63;;
68507;SDS011;55510;49.560;19.090;2023-03-25T19:55:14;101.70;;;42.87;;
68507;SDS011;55510;49.560;19.090;2023-03-25T19:58:16;129.18;;;52.40;;
68507;SDS011;55510;49.560;19.090;2023-03-25T20:01:17;113.18;;;44.25;;
68507;SDS011;55510;49.560;19.090;2023-03-25T20:04:18;114.20;;;45.47;;
68507;SDS011;55510;49.560;19.090;2023-03-25T20:07:19;88.22;;;35.80;;
68507;SDS011;55510;49.560;19.090;2023-03-25T20:10:21;83.93;;;33.42;;
68507;SDS011;55510;49.560;19.090;2023-03-25T20:13:24;134.38;;;50.38;;
68507;SDS011;55510;49.560;19.090;2023-03-25T20:16:26;135.07;;;51.33;;
68507;SDS011;55510;49.560;19.090;2023-03-25T20:19:27;123.95;;;50.55;;
68507;SDS011;55510;49.560;19.090;2023-03-25T20:22:28;101.93;;;44.03;;
68507;SDS011;55510;49.560;19.090;2023-03-25T20:25:28;96.17;;;39.57;;
68507;SDS011;55510;49.560;19.090;2023-03-25T20:28:29;123.07;;;46.88;;
68507;SDS011;55510;49.560;19.090;2023-03-25T20:31:30;132.27;;;49.77;;
68507;SDS011;55510;49.560;19.090;2023-03-25T20:34:33;127.33;;;49.37;;
68507;SDS011;55510;49.560;19.090;2023-03-25T20:37:34;65.90;;;27.33;;